createdAt,value
2023-12-16T00:01:09.721Z,102898.84
2023-12-16T00:03:37.537Z,102896.22
2023-12-16T00:06:07.924Z,102889.19
2023-12-16T00:08:36.586Z,102897.94
2023-12-16T00:11:04.433Z,102903.13
2023-12-16T00:13:32.752Z,102900.50
2023-12-16T00:16:00.443Z,102899.66
2023-12-16T00:18:29.892Z,102904.91
2023-12-16T00:20:57.559Z,102904.03
2023-12-16T00:23:25.205Z,102897.00
2023-12-16T00:25:53.197Z,102897.00
2023-12-16T00:28:21.039Z,102894.47
2023-12-16T00:30:48.866Z,102896.22
2023-12-16T00:33:16.663Z,102899.75
2023-12-16T00:35:46.149Z,102901.47
2023-12-16T00:38:13.987Z,102905.00
2023-12-16T00:40:41.681Z,102914.72
2023-12-16T00:43:09.553Z,102907.72
2023-12-16T00:45:37.248Z,102903.38
2023-12-16T00:48:05.028Z,102900.66
2023-12-16T00:50:32.754Z,102897.19
2023-12-16T00:53:01.725Z,102885.75
2023-12-16T00:55:29.455Z,102884.03
2023-12-16T00:57:57.390Z,102887.50
2023-12-16T01:00:25.124Z,102884.88
2023-12-16T01:02:52.757Z,102879.69
2023-12-16T01:05:20.750Z,102869.16
2023-12-16T01:07:48.432Z,102873.59
2023-12-16T01:10:17.768Z,102879.75
2023-12-16T01:12:45.507Z,102896.47
2023-12-16T01:15:13.240Z,102900.00
2023-12-16T01:17:41.839Z,102906.06
2023-12-16T01:20:09.955Z,102906.16
2023-12-16T01:22:37.703Z,102903.53
2023-12-16T01:25:06.600Z,102904.47
2023-12-16T01:27:35.914Z,102892.09
2023-12-16T01:30:05.186Z,102897.38
2023-12-16T01:32:33.242Z,102892.09
2023-12-16T01:35:01.098Z,102892.09
2023-12-16T01:37:29.301Z,102896.47
2023-12-16T01:39:57.418Z,102890.28
2023-12-16T01:42:25.289Z,102895.53
2023-12-16T01:44:54.272Z,102908.72
2023-12-16T01:47:22.037Z,102914.81
2023-12-16T01:49:49.924Z,102908.56
2023-12-16T01:52:18.668Z,102910.44
2023-12-16T01:54:47.151Z,102899.03
2023-12-16T01:57:14.913Z,102900.75
2023-12-16T01:59:43.016Z,102901.66
2023-12-16T02:02:14.594Z,102901.56
2023-12-16T02:04:42.739Z,102899.09
2023-12-16T02:07:10.835Z,102897.38
2023-12-16T02:09:38.611Z,102893.09
2023-12-16T02:12:07.001Z,102893.00
2023-12-16T02:14:34.911Z,102892.19
2023-12-16T02:17:02.817Z,102898.34
2023-12-16T02:19:32.184Z,102900.09
2023-12-16T02:22:00.684Z,102906.16
2023-12-16T02:24:30.496Z,102897.47
2023-12-16T02:26:58.327Z,102908.06
2023-12-16T02:29:26.018Z,102904.56
2023-12-16T02:31:53.699Z,102908.88
2023-12-16T02:34:24.489Z,102904.47
2023-12-16T02:36:52.234Z,102908.00
2023-12-16T02:39:19.920Z,102918.53
2023-12-16T02:41:48.893Z,102917.63
2023-12-16T02:44:16.558Z,102923.69
2023-12-16T02:46:44.267Z,102925.44
2023-12-16T02:49:12.006Z,102938.53
2023-12-16T02:51:39.698Z,102942.94
2023-12-16T02:54:08.245Z,102945.53
2023-12-16T02:56:35.950Z,102957.75
2023-12-16T02:59:05.258Z,102966.50
2023-12-16T03:01:33.023Z,102968.09
2023-12-16T03:04:00.720Z,102960.31
2023-12-16T03:06:28.745Z,102960.22
2023-12-16T03:08:56.381Z,102960.16
2023-12-16T03:11:24.039Z,102945.16
2023-12-16T03:13:52.088Z,102937.16
2023-12-16T03:16:21.534Z,102933.66
2023-12-16T03:18:49.404Z,102936.19
2023-12-16T03:21:17.272Z,102930.09
2023-12-16T03:23:45.001Z,102927.44
2023-12-16T03:26:12.669Z,102921.28
2023-12-16T03:28:40.657Z,102917.75
2023-12-16T03:31:08.456Z,102915.13
2023-12-16T03:33:37.701Z,102918.66
2023-12-16T03:36:06.009Z,102918.56
2023-12-16T03:38:33.652Z,102935.44
2023-12-16T03:41:01.359Z,102939.81
2023-12-16T03:43:29.313Z,102937.16
2023-12-16T03:45:56.999Z,102937.16
2023-12-16T03:48:25.501Z,102938.91
2023-12-16T03:50:54.842Z,102945.97
2023-12-16T03:53:23.681Z,102952.16
2023-12-16T03:55:51.370Z,102959.13
2023-12-16T03:58:19.455Z,102966.22
2023-12-16T04:00:47.365Z,102968.06
2023-12-16T04:03:16.039Z,102965.41
2023-12-16T04:05:44.467Z,102969.84
2023-12-16T04:08:13.532Z,102973.38
2023-12-16T04:10:41.441Z,102968.09
2023-12-16T04:13:09.156Z,102974.41
2023-12-16T04:15:36.823Z,102967.31
2023-12-16T04:18:04.637Z,102962.94
2023-12-16T04:20:32.383Z,102957.66
2023-12-16T04:23:00.103Z,102953.25
2023-12-16T04:25:29.551Z,102955.97
2023-12-16T04:27:57.351Z,102961.22
2023-12-16T04:30:25.058Z,102964.75
2023-12-16T04:32:52.932Z,102959.59
2023-12-16T04:35:20.733Z,102955.13
2023-12-16T04:37:48.388Z,102954.31
2023-12-16T04:40:16.377Z,102949.06
2023-12-16T04:42:45.468Z,102947.31
2023-12-16T04:45:13.561Z,102947.31
2023-12-16T04:47:41.452Z,102944.78
2023-12-16T04:50:10.160Z,102948.22
2023-12-16T04:52:37.885Z,102944.69
2023-12-16T04:55:06.538Z,102957.03
2023-12-16T04:57:34.235Z,102953.47
2023-12-16T05:00:03.683Z,102952.59
2023-12-16T05:02:31.363Z,102958.75
2023-12-16T05:04:59.030Z,102970.13
2023-12-16T05:07:26.892Z,102971.84
2023-12-16T05:09:54.816Z,102982.31
2023-12-16T05:12:35.066Z,102973.47
2023-12-16T05:15:06.332Z,102979.56
2023-12-16T05:17:34.112Z,102972.47
2023-12-16T05:20:02.083Z,102970.75
2023-12-16T05:22:34.574Z,102978.59
2023-12-16T05:25:03.294Z,102983.84
2023-12-16T05:27:33.148Z,103000.47
2023-12-16T05:30:06.982Z,103013.63
2023-12-16T05:32:36.359Z,103011.69
2023-12-16T05:35:06.059Z,103003.00
2023-12-16T05:37:34.994Z,103001.16
2023-12-16T05:40:04.984Z,102998.63
2023-12-16T05:42:32.829Z,103001.16
2023-12-16T05:45:00.517Z,103009.16
2023-12-16T05:47:29.567Z,103005.53
2023-12-16T05:49:57.397Z,102995.84
2023-12-16T05:52:25.170Z,102993.22
2023-12-16T05:54:53.248Z,102983.50
2023-12-16T05:57:20.970Z,102986.13
2023-12-16T05:59:48.636Z,102990.59
2023-12-16T06:02:16.258Z,102995.75
2023-12-16T06:04:46.245Z,103001.13
2023-12-16T06:07:14.009Z,103006.28
2023-12-16T06:09:41.801Z,102996.66
2023-12-16T06:12:10.481Z,103001.03
2023-12-16T06:14:37.208Z,102996.66
2023-12-16T06:17:05.280Z,103007.09
2023-12-16T06:19:33.302Z,102996.66
2023-12-16T06:22:02.890Z,103003.66
2023-12-16T06:24:30.666Z,103007.19
2023-12-16T06:26:58.369Z,103011.56
2023-12-16T06:29:26.159Z,103018.69
2023-12-16T06:31:53.878Z,103015.19
2023-12-16T06:34:22.328Z,103017.81
2023-12-16T06:36:50.054Z,103037.97
2023-12-16T06:39:19.091Z,103042.41
2023-12-16T06:41:46.790Z,103044.13
2023-12-16T06:44:14.483Z,103054.75
2023-12-16T06:46:42.455Z,103060.84
2023-12-16T06:49:10.227Z,103060.94
2023-12-16T06:51:37.916Z,103049.50
2023-12-16T06:54:06.038Z,103057.41
2023-12-16T06:56:35.226Z,103057.41
2023-12-16T06:59:04.238Z,103052.94
2023-12-16T07:01:32.020Z,103049.50
2023-12-16T07:04:02.429Z,103053.78
2023-12-16T07:06:30.237Z,103053.78
2023-12-16T07:08:57.913Z,103047.66
2023-12-16T07:11:26.066Z,103038.78
2023-12-16T07:13:55.070Z,103042.31
2023-12-16T07:16:22.800Z,103037.97
2023-12-16T07:18:50.548Z,103032.75
2023-12-16T07:21:19.282Z,103033.69
2023-12-16T07:23:47.164Z,103035.50
2023-12-16T07:26:15.033Z,103026.69
2023-12-16T07:28:42.734Z,103032.06
2023-12-16T07:31:11.904Z,103032.16
2023-12-16T07:33:39.819Z,103026.88
2023-12-16T07:36:08.494Z,103030.50
2023-12-16T07:38:36.239Z,103025.22
2023-12-16T07:41:04.018Z,103028.75
2023-12-16T07:43:31.996Z,103039.47
2023-12-16T07:45:59.888Z,103042.13
2023-12-16T07:48:29.218Z,103036.94
2023-12-16T07:50:57.028Z,103039.66
2023-12-16T07:53:24.931Z,103034.50
2023-12-16T07:55:52.618Z,103037.41
2023-12-16T07:58:20.405Z,103037.47
2023-12-16T08:00:48.555Z,103042.09
2023-12-16T08:03:16.351Z,103045.72
2023-12-16T08:05:45.773Z,103052.06
2023-12-16T08:08:12.538Z,103050.50
2023-12-16T08:10:40.288Z,103054.09
2023-12-16T08:13:08.160Z,103051.59
2023-12-16T08:15:35.993Z,103046.41
2023-12-16T08:18:04.902Z,103048.34
2023-12-16T08:20:32.736Z,103044.78
2023-12-16T08:23:03.548Z,103045.03
2023-12-16T08:25:31.512Z,103055.66
2023-12-16T08:27:59.356Z,103053.94
2023-12-16T08:30:27.761Z,103065.50
2023-12-16T08:32:55.467Z,103074.38
2023-12-16T08:35:23.405Z,103061.28
2023-12-16T08:37:51.235Z,103059.84
2023-12-16T08:40:20.353Z,103054.66
2023-12-16T08:42:48.327Z,103038.97
2023-12-16T08:45:16.776Z,103030.34
2023-12-16T08:47:46.233Z,103035.03
2023-12-16T08:50:14.287Z,103034.16
2023-12-16T08:52:43.323Z,103025.75
2023-12-16T08:55:11.432Z,103033.03
2023-12-16T08:57:41.200Z,103024.34
2023-12-16T09:00:10.818Z,103020.16
2023-12-16T09:02:39.356Z,103021.22
2023-12-16T09:05:07.304Z,103009.78
2023-12-16T09:07:35.134Z,103016.88
2023-12-16T09:10:02.930Z,103024.78
2023-12-16T09:12:30.663Z,103021.13
2023-12-16T09:15:00.186Z,103022.78
2023-12-16T09:17:27.935Z,103030.69
2023-12-16T09:19:55.673Z,103035.88
2023-12-16T09:22:23.839Z,103039.28
2023-12-16T09:24:51.627Z,103049.81
2023-12-16T09:27:19.449Z,103053.34
2023-12-16T09:29:47.202Z,103048.16
2023-12-16T09:32:16.433Z,103053.72
2023-12-16T09:34:44.330Z,103053.22
2023-12-16T09:37:12.085Z,103045.88
2023-12-16T09:39:41.019Z,103048.19
2023-12-16T09:42:09.066Z,103043.66
2023-12-16T09:44:38.407Z,103034.59
2023-12-16T09:47:09.416Z,103026.56
2023-12-16T09:49:39.659Z,103029.00
2023-12-16T09:52:07.706Z,103012.03
2023-12-16T09:54:35.766Z,103018.09
2023-12-16T09:57:04.435Z,103014.25
2023-12-16T09:59:32.472Z,103021.03
2023-12-16T10:02:04.439Z,103019.75
2023-12-16T10:04:34.074Z,103005.25
2023-12-16T10:07:03.264Z,102993.50
2023-12-16T10:09:30.960Z,102980.78
2023-12-16T10:12:00.597Z,102975.94
2023-12-16T10:14:28.968Z,102983.38
2023-12-16T10:17:03.773Z,102979.59
2023-12-16T10:19:31.610Z,102975.56
2023-12-16T10:21:59.333Z,102974.16
2023-12-16T10:24:28.596Z,102965.72
2023-12-16T10:26:56.501Z,102951.03
2023-12-16T10:29:24.201Z,102961.81
2023-12-16T10:31:52.104Z,102954.06
2023-12-16T10:34:20.246Z,102956.00
2023-12-16T10:36:47.994Z,102951.59
2023-12-16T10:39:16.112Z,102941.03
2023-12-16T10:41:45.351Z,102935.72
2023-12-16T10:44:13.015Z,102923.16
2023-12-16T10:46:44.569Z,102931.91
2023-12-16T10:49:14.707Z,102917.00
2023-12-16T10:51:45.615Z,102915.88
2023-12-16T10:54:19.128Z,102915.84
2023-12-16T10:56:59.938Z,102911.31
2023-12-16T10:59:34.640Z,102912.16
2023-12-16T11:02:08.898Z,102895.38
2023-12-16T11:04:39.539Z,102899.84
2023-12-16T11:07:09.593Z,102903.44
2023-12-16T11:09:38.814Z,102895.66
2023-12-16T11:12:09.263Z,102897.50
2023-12-16T11:14:37.981Z,102899.31
2023-12-16T11:17:11.714Z,102906.41
2023-12-16T11:19:51.493Z,102908.94
2023-12-16T11:22:23.130Z,102893.13
2023-12-16T11:24:52.704Z,102893.13
2023-12-16T11:27:22.563Z,102888.66
2023-12-16T11:29:50.383Z,102890.34
2023-12-16T11:32:18.960Z,102887.69
2023-12-16T11:34:50.448Z,102890.28
2023-12-16T11:37:43.662Z,102886.75
2023-12-16T11:40:42.408Z,102882.22
2023-12-16T11:43:12.596Z,102871.56
2023-12-16T11:45:42.168Z,102867.13
2023-12-16T11:48:11.073Z,102863.63
2023-12-16T11:50:41.021Z,102855.66
2023-12-16T11:53:10.292Z,102846.91
2023-12-16T11:55:38.223Z,102844.19
2023-12-16T11:58:06.676Z,102841.69
2023-12-16T12:00:36.878Z,102840.81
2023-12-16T12:03:07.188Z,102838.16
2023-12-16T12:05:37.801Z,102837.34
2023-12-16T12:08:07.197Z,102839.13
2023-12-16T12:10:36.271Z,102833.75
2023-12-16T12:13:04.237Z,102832.06
2023-12-16T12:15:34.712Z,102826.69
2023-12-16T12:18:03.938Z,102824.94
2023-12-16T12:20:31.732Z,102818.75
2023-12-16T12:23:00.413Z,102824.88
2023-12-16T12:25:30.374Z,102819.56
2023-12-16T12:27:58.082Z,102809.84
2023-12-16T12:30:25.782Z,102808.03
2023-12-16T12:32:53.677Z,102806.25
2023-12-16T12:35:24.240Z,102799.00
2023-12-16T12:37:52.699Z,102807.00
2023-12-16T12:40:20.985Z,102803.47
2023-12-16T12:42:50.713Z,102799.91
2023-12-16T12:45:27.000Z,102787.66
2023-12-16T12:47:55.225Z,102788.53
2023-12-16T12:50:26.832Z,102789.63
2023-12-16T12:53:19.159Z,102771.25
2023-12-16T12:55:44.457Z,102769.63
2023-12-16T12:58:19.352Z,102768.06
2023-12-16T13:00:51.439Z,102766.31
2023-12-16T13:03:19.361Z,102762.75
2023-12-16T13:05:49.064Z,102761.88
2023-12-16T13:08:17.101Z,102753.94
2023-12-16T13:10:46.082Z,102745.06
2023-12-16T13:13:14.187Z,102733.50
2023-12-16T13:15:54.150Z,102730.75
2023-12-16T13:18:26.125Z,102741.38
2023-12-16T13:20:56.620Z,102735.22
2023-12-16T13:23:24.495Z,102738.69
2023-12-16T13:25:55.051Z,102735.97
2023-12-16T13:28:23.517Z,102736.84
2023-12-16T13:30:52.850Z,102735.88
2023-12-16T13:33:21.389Z,102744.72
2023-12-16T13:35:50.197Z,102748.13
2023-12-16T13:38:19.457Z,102745.47
2023-12-16T13:40:52.188Z,102751.63
2023-12-16T13:43:21.595Z,102742.72
2023-12-16T13:45:51.246Z,102742.59
2023-12-16T13:48:19.994Z,102739.88
2023-12-16T13:50:47.933Z,102742.41
2023-12-16T13:53:15.580Z,102737.03
2023-12-16T13:55:44.567Z,102736.91
2023-12-16T13:58:12.307Z,102734.13
2023-12-16T14:00:40.502Z,102730.53
2023-12-16T14:03:08.337Z,102733.19
2023-12-16T14:05:36.162Z,102726.94
2023-12-16T14:08:04.798Z,102724.22
2023-12-16T14:10:32.573Z,102723.25
2023-12-16T14:13:01.601Z,102727.59
2023-12-16T14:15:29.296Z,102729.28
2023-12-16T14:17:57.182Z,102729.16
2023-12-16T14:20:24.902Z,102736.16
2023-12-16T14:22:53.747Z,102734.31
2023-12-16T14:25:22.287Z,102737.72
2023-12-16T14:27:50.788Z,102734.97
2023-12-16T14:30:20.577Z,102732.25
2023-12-16T14:32:48.469Z,102733.94
2023-12-16T14:35:16.412Z,102735.59
2023-12-16T14:37:44.126Z,102724.06
2023-12-16T14:40:13.604Z,102731.03
2023-12-16T14:42:41.575Z,102730.06
2023-12-16T14:45:10.476Z,102738.75
2023-12-16T14:47:39.702Z,102736.03
2023-12-16T14:50:07.977Z,102731.47
2023-12-16T14:52:35.808Z,102736.69
2023-12-16T14:55:06.231Z,102744.56
2023-12-16T14:57:36.600Z,102748.00
2023-12-16T15:00:05.570Z,102745.28
2023-12-16T15:02:33.567Z,102741.69
2023-12-16T15:05:03.235Z,102742.50
2023-12-16T15:07:31.159Z,102738.91
2023-12-16T15:10:00.008Z,102734.38
2023-12-16T15:12:29.098Z,102737.88
2023-12-16T15:14:57.382Z,102722.75
2023-12-16T15:17:25.546Z,102731.50
2023-12-16T15:19:53.365Z,102724.38
2023-12-16T15:22:22.522Z,102721.66
2023-12-16T15:24:50.197Z,102724.22
2023-12-16T15:27:19.094Z,102719.81
2023-12-16T15:29:46.788Z,102721.44
2023-12-16T15:32:16.182Z,102736.47
2023-12-16T15:34:44.472Z,102732.09
2023-12-16T15:37:17.634Z,102726.88
2023-12-16T15:39:47.353Z,102729.59
2023-12-16T15:42:16.825Z,102727.84
2023-12-16T15:44:45.029Z,102719.91
2023-12-16T15:47:12.764Z,102719.16
2023-12-16T15:49:40.595Z,102717.34
2023-12-16T15:52:08.449Z,102711.28
2023-12-16T15:54:36.154Z,102702.56
2023-12-16T15:57:09.527Z,102710.50
2023-12-16T15:59:37.533Z,102715.94
2023-12-16T16:02:05.905Z,102707.94
2023-12-16T16:04:33.767Z,102700.94
2023-12-16T16:07:01.526Z,102704.47
2023-12-16T16:09:29.314Z,102702.72
2023-12-16T16:11:57.065Z,102709.81
2023-12-16T16:14:26.104Z,102701.88
2023-12-16T16:16:53.821Z,102702.84
2023-12-16T16:19:22.416Z,102702.84
2023-12-16T16:21:50.273Z,102705.56
2023-12-16T16:24:18.833Z,102703.81
2023-12-16T16:26:46.574Z,102710.84
2023-12-16T16:29:14.377Z,102710.91
2023-12-16T16:31:43.902Z,102710.91
2023-12-16T16:34:11.956Z,102722.31
2023-12-16T16:36:39.739Z,102716.19
2023-12-16T16:39:09.168Z,102720.56
2023-12-16T16:41:37.001Z,102717.09
2023-12-16T16:44:05.134Z,102723.22
2023-12-16T16:46:32.965Z,102725.03
2023-12-16T16:49:02.081Z,102725.84
2023-12-16T16:51:31.487Z,102724.13
2023-12-16T16:53:59.191Z,102720.63
2023-12-16T16:56:27.148Z,102721.50
2023-12-16T16:58:55.272Z,102722.31
2023-12-16T17:01:23.213Z,102716.97
2023-12-16T17:03:51.011Z,102724.97
2023-12-16T17:06:20.318Z,102732.88
2023-12-16T17:08:48.050Z,102737.22
2023-12-16T17:11:15.945Z,102731.09
2023-12-16T17:13:43.609Z,102738.19
2023-12-16T17:16:14.141Z,102739.94
2023-12-16T17:18:42.161Z,102739.03
2023-12-16T17:21:10.159Z,102742.56
2023-12-16T17:23:39.269Z,102735.38
2023-12-16T17:26:07.612Z,102731.84
2023-12-16T17:28:35.380Z,102735.38
2023-12-16T17:31:05.394Z,102736.25
2023-12-16T17:33:33.675Z,102730.97
2023-12-16T17:36:05.236Z,102731.72
2023-12-16T17:38:33.625Z,102737.00
2023-12-16T17:41:02.843Z,102746.75
2023-12-16T17:43:30.499Z,102744.03
2023-12-16T17:45:58.174Z,102742.28
2023-12-16T17:48:26.475Z,102748.44
2023-12-16T17:50:54.234Z,102738.75
2023-12-16T17:53:22.736Z,102742.28
2023-12-16T17:55:50.658Z,102734.44
2023-12-16T17:58:19.773Z,102749.41
2023-12-16T18:00:49.413Z,102740.56
2023-12-16T18:03:17.736Z,102741.47
2023-12-16T18:05:45.469Z,102740.56
2023-12-16T18:08:13.249Z,102747.66
2023-12-16T18:10:40.941Z,102738.81
2023-12-16T18:13:09.422Z,102743.25
2023-12-16T18:15:42.696Z,102736.25
2023-12-16T18:18:11.570Z,102740.63
2023-12-16T18:20:59.140Z,102743.25
2023-12-16T18:23:29.483Z,102759.13
2023-12-16T18:26:03.094Z,102765.31
2023-12-16T18:28:31.799Z,102778.53
2023-12-16T18:31:02.013Z,102783.84
2023-12-16T18:33:30.442Z,102782.09
2023-12-16T18:35:58.250Z,102774.22
2023-12-16T18:38:25.980Z,102769.84
2023-12-16T18:40:54.636Z,102769.06
2023-12-16T18:43:23.442Z,102780.53
2023-12-16T18:45:51.410Z,102783.19
2023-12-16T18:48:20.644Z,102782.28
2023-12-16T18:50:49.710Z,102781.38
2023-12-16T18:53:17.531Z,102782.28
2023-12-16T18:55:45.881Z,102773.44
2023-12-16T18:58:13.711Z,102771.72
2023-12-16T19:00:41.437Z,102777.97
2023-12-16T19:03:09.254Z,102793.84
2023-12-16T19:05:38.386Z,102778.78
2023-12-16T19:08:07.713Z,102763.00
2023-12-16T19:10:35.603Z,102763.84
2023-12-16T19:13:03.357Z,102763.94
2023-12-16T19:15:31.800Z,102760.44
2023-12-16T19:17:59.858Z,102756.81
2023-12-16T19:20:27.748Z,102751.59
2023-12-16T19:22:58.430Z,102750.75
2023-12-16T19:25:26.355Z,102762.25
2023-12-16T19:27:54.199Z,102752.56
2023-12-16T19:30:22.056Z,102771.06
2023-12-16T19:32:49.998Z,102772.81
2023-12-16T19:35:18.064Z,102780.81
2023-12-16T19:37:45.942Z,102772.97
2023-12-16T19:40:16.824Z,102760.69
2023-12-16T19:42:45.789Z,102759.84
2023-12-16T19:45:13.843Z,102756.50
2023-12-16T19:47:42.796Z,102755.66
2023-12-16T19:50:11.294Z,102757.41
2023-12-16T19:52:39.170Z,102769.72
2023-12-16T19:55:07.560Z,102761.81
2023-12-16T19:57:36.938Z,102767.03
2023-12-16T20:00:05.680Z,102751.28
2023-12-16T20:02:40.424Z,102746.00
2023-12-16T20:05:09.599Z,102749.53
2023-12-16T20:07:39.445Z,102761.94
2023-12-16T20:10:08.232Z,102748.72
2023-12-16T20:12:37.499Z,102746.09
2023-12-16T20:15:05.694Z,102754.91
2023-12-16T20:17:33.601Z,102754.91
2023-12-16T20:20:01.785Z,102754.00
2023-12-16T20:22:29.754Z,102747.78
2023-12-16T20:24:58.137Z,102752.19
2023-12-16T20:27:26.003Z,102746.16
2023-12-16T20:29:59.176Z,102738.13
2023-12-16T20:32:27.115Z,102738.13
2023-12-16T20:34:55.132Z,102737.22
2023-12-16T20:37:25.126Z,102735.44
2023-12-16T20:40:10.324Z,102746.81
2023-12-16T20:42:42.585Z,102752.03
2023-12-16T20:45:12.819Z,102756.44
2023-12-16T20:47:40.847Z,102759.91
2023-12-16T20:50:09.835Z,102757.19
2023-12-16T20:52:38.020Z,102751.09
2023-12-16T20:55:06.435Z,102751.97
2023-12-16T20:57:35.020Z,102770.50
2023-12-16T21:00:02.818Z,102772.25
2023-12-16T21:02:31.893Z,102778.34
2023-12-16T21:04:59.627Z,102772.25
2023-12-16T21:07:27.719Z,102773.06
2023-12-16T21:09:55.528Z,102782.81
2023-12-16T21:12:23.800Z,102774.06
2023-12-16T21:14:51.835Z,102788.31
2023-12-16T21:17:20.123Z,102783.91
2023-12-16T21:19:49.259Z,102772.38
2023-12-16T21:22:16.970Z,102761.81
2023-12-16T21:24:49.529Z,102767.97
2023-12-16T21:27:18.072Z,102757.41
2023-12-16T21:29:46.592Z,102759.22
2023-12-16T21:32:15.177Z,102768.13
2023-12-16T21:34:43.241Z,102772.50
2023-12-16T21:37:12.852Z,102782.09
2023-12-16T21:39:41.007Z,102776.88
2023-12-16T21:42:09.375Z,102758.38
2023-12-16T21:44:37.261Z,102754.97
2023-12-16T21:47:05.232Z,102769.91
2023-12-16T21:49:33.113Z,102776.06
2023-12-16T21:52:00.842Z,102786.69
2023-12-16T21:54:30.388Z,102780.47
2023-12-16T21:57:01.080Z,102776.94
2023-12-16T21:59:28.798Z,102766.28
2023-12-16T22:01:56.467Z,102751.53
2023-12-16T22:04:24.085Z,102741.75
2023-12-16T22:06:51.986Z,102728.59
2023-12-16T22:09:19.895Z,102726.84
2023-12-16T22:11:49.021Z,102721.53
2023-12-16T22:14:16.732Z,102721.41
2023-12-16T22:16:44.440Z,102722.31
2023-12-16T22:19:12.703Z,102720.66
2023-12-16T22:21:40.498Z,102721.41
2023-12-16T22:24:08.936Z,102731.22
2023-12-16T22:26:36.643Z,102734.69
2023-12-16T22:29:05.629Z,102740.94
2023-12-16T22:31:36.732Z,102729.63
2023-12-16T22:34:04.508Z,102719.78
2023-12-16T22:36:32.493Z,102720.75
2023-12-16T22:39:00.605Z,102710.97
2023-12-16T22:41:28.345Z,102707.34
2023-12-16T22:43:56.015Z,102716.19
2023-12-16T22:46:25.095Z,102724.13
2023-12-16T22:48:52.982Z,102727.56
2023-12-16T22:51:21.017Z,102732.78
2023-12-16T22:53:48.823Z,102731.03
2023-12-16T22:56:18.180Z,102726.56
2023-12-16T22:58:45.829Z,102723.91
2023-12-16T23:01:13.655Z,102733.66
2023-12-16T23:03:42.896Z,102733.59
2023-12-16T23:06:11.894Z,102735.34
2023-12-16T23:08:40.202Z,102730.81
2023-12-16T23:11:08.302Z,102731.63
2023-12-16T23:13:36.153Z,102725.38
2023-12-16T23:16:06.805Z,102736.03
2023-12-16T23:18:34.652Z,102730.75
2023-12-16T23:21:06.012Z,102730.75
2023-12-16T23:23:34.754Z,102721.03
2023-12-16T23:26:03.816Z,102726.47
2023-12-16T23:28:31.687Z,102732.66
2023-12-16T23:31:07.332Z,102739.69
2023-12-16T23:33:39.977Z,102737.03
2023-12-16T23:36:10.447Z,102730.81
2023-12-16T23:38:41.676Z,102725.47
2023-12-16T23:41:15.858Z,102728.97
2023-12-16T23:43:43.686Z,102718.06
2023-12-16T23:46:13.183Z,102724.00
2023-12-16T23:48:41.278Z,102714.91
2023-12-16T23:51:10.497Z,102716.38
2023-12-16T23:53:38.477Z,102709.03
2023-12-16T23:56:08.075Z,102714.97
2023-12-16T23:58:36.482Z,102720.84
